sensor_id;sensor_type;location;lat;lon;timestamp;temperature;humidity
5364;DHT22;2705;41.410;2.160;2024-01-25T00:01:35;13.30;99.90
5364;DHT22;2705;41.410;2.160;2024-01-25T00:04:05;13.50;99.90
5364;DHT22;2705;41.410;2.160;2024-01-25T00:06:34;13.30;99.90
5364;DHT22;2705;41.410;2.160;2024-01-25T00:09:05;13.30;99.90
5364;DHT22;2705;41.410;2.160;2024-01-25T00:11:34;13.40;99.90
5364;DHT22;2705;41.410;2.160;2024-01-25T00:14:04;13.40;99.90
5364;DHT22;2705;41.410;2.160;2024-01-25T00:16:33;13.20;99.90
5364;DHT22;2705;41.410;2.160;2024-01-25T00:19:02;13.30;99.90
5364;DHT22;2705;41.410;2.160;2024-01-25T00:21:31;13.40;99.90
5364;DHT22;2705;41.410;2.160;2024-01-25T00:24:00;13.40;99.90
5364;DHT22;2705;41.410;2.160;2024-01-25T00:26:30;13.40;99.90
5364;DHT22;2705;41.410;2.160;2024-01-25T00:29:00;13.50;99.90
5364;DHT22;2705;41.410;2.160;2024-01-25T00:31:29;13.50;99.90
5364;DHT22;2705;41.410;2.160;2024-01-25T00:33:59;13.40;99.90
5364;DHT22;2705;41.410;2.160;2024-01-25T00:36:28;13.60;99.90
5364;DHT22;2705;41.410;2.160;2024-01-25T00:38:58;13.40;99.90
5364;DHT22;2705;41.410;2.160;2024-01-25T00:41:30;13.80;99.90
5364;DHT22;2705;41.410;2.160;2024-01-25T00:44:01;13.80;99.90
5364;DHT22;2705;41.410;2.160;2024-01-25T00:46:31;14.00;99.90
5364;DHT22;2705;41.410;2.160;2024-01-25T00:49:00;14.10;99.90
5364;DHT22;2705;41.410;2.160;2024-01-25T00:51:30;14.10;99.90
5364;DHT22;2705;41.410;2.160;2024-01-25T00:54:00;14.00;99.90
5364;DHT22;2705;41.410;2.160;2024-01-25T00:56:31;14.00;99.90
5364;DHT22;2705;41.410;2.160;2024-01-25T00:59:01;14.00;99.90
5364;DHT22;2705;41.410;2.160;2024-01-25T01:01:30;13.90;99.90
5364;DHT22;2705;41.410;2.160;2024-01-25T01:04:00;13.90;99.90
5364;DHT22;2705;41.410;2.160;2024-01-25T01:06:30;13.80;99.90
5364;DHT22;2705;41.410;2.160;2024-01-25T01:08:59;13.80;99.90
5364;DHT22;2705;41.410;2.160;2024-01-25T01:11:30;13.80;99.90
5364;DHT22;2705;41.410;2.160;2024-01-25T01:13:59;13.70;99.90
5364;DHT22;2705;41.410;2.160;2024-01-25T01:16:28;13.70;99.90
5364;DHT22;2705;41.410;2.160;2024-01-25T01:19:00;13.60;99.90
5364;DHT22;2705;41.410;2.160;2024-01-25T01:21:34;13.60;99.90
5364;DHT22;2705;41.410;2.160;2024-01-25T01:24:03;13.70;99.90
5364;DHT22;2705;41.410;2.160;2024-01-25T01:26:34;13.50;99.90
5364;DHT22;2705;41.410;2.160;2024-01-25T01:29:03;13.50;99.90
5364;DHT22;2705;41.410;2.160;2024-01-25T01:31:32;13.80;99.90
5364;DHT22;2705;41.410;2.160;2024-01-25T01:34:01;13.90;99.90
5364;DHT22;2705;41.410;2.160;2024-01-25T01:36:30;13.70;99.90
5364;DHT22;2705;41.410;2.160;2024-01-25T01:38:59;13.50;99.90
5364;DHT22;2705;41.410;2.160;2024-01-25T01:41:29;13.30;99.90
5364;DHT22;2705;41.410;2.160;2024-01-25T01:43:59;13.30;99.90
5364;DHT22;2705;41.410;2.160;2024-01-25T01:46:32;13.30;99.90
5364;DHT22;2705;41.410;2.160;2024-01-25T01:49:03;13.30;99.90
5364;DHT22;2705;41.410;2.160;2024-01-25T01:51:34;13.40;99.90
5364;DHT22;2705;41.410;2.160;2024-01-25T01:54:05;13.10;99.90
5364;DHT22;2705;41.410;2.160;2024-01-25T01:56:34;13.30;99.90
5364;DHT22;2705;41.410;2.160;2024-01-25T01:59:09;13.40;99.90
5364;DHT22;2705;41.410;2.160;2024-01-25T02:01:39;13.50;99.90
5364;DHT22;2705;41.410;2.160;2024-01-25T02:04:08;13.50;99.90
5364;DHT22;2705;41.410;2.160;2024-01-25T02:06:38;13.40;99.90
5364;DHT22;2705;41.410;2.160;2024-01-25T02:09:08;13.40;99.90
5364;DHT22;2705;41.410;2.160;2024-01-25T02:11:37;13.50;99.90
5364;DHT22;2705;41.410;2.160;2024-01-25T02:14:07;13.50;99.90
5364;DHT22;2705;41.410;2.160;2024-01-25T02:16:40;13.60;99.90
5364;DHT22;2705;41.410;2.160;2024-01-25T02:19:13;13.70;99.90
5364;DHT22;2705;41.410;2.160;2024-01-25T02:21:42;13.60;99.90
5364;DHT22;2705;41.410;2.160;2024-01-25T02:24:13;13.60;99.90
5364;DHT22;2705;41.410;2.160;2024-01-25T02:26:43;13.60;99.90
5364;DHT22;2705;41.410;2.160;2024-01-25T02:29:12;13.60;99.90
5364;DHT22;2705;41.410;2.160;2024-01-25T02:31:41;13.50;99.90
5364;DHT22;2705;41.410;2.160;2024-01-25T02:34:10;13.30;99.90
5364;DHT22;2705;41.410;2.160;2024-01-25T02:36:39;13.40;99.90
5364;DHT22;2705;41.410;2.160;2024-01-25T02:39:08;13.40;99.90
5364;DHT22;2705;41.410;2.160;2024-01-25T02:41:38;13.40;99.90
5364;DHT22;2705;41.410;2.160;2024-01-25T02:44:08;13.50;99.90
5364;DHT22;2705;41.410;2.160;2024-01-25T02:46:37;13.50;99.90
5364;DHT22;2705;41.410;2.160;2024-01-25T02:49:06;13.50;99.90
5364;DHT22;2705;41.410;2.160;2024-01-25T02:51:36;13.50;99.90
5364;DHT22;2705;41.410;2.160;2024-01-25T02:54:05;13.40;99.90
5364;DHT22;2705;41.410;2.160;2024-01-25T02:56:34;13.30;99.90
5364;DHT22;2705;41.410;2.160;2024-01-25T02:59:05;13.30;99.90
5364;DHT22;2705;41.410;2.160;2024-01-25T03:01:39;13.40;99.90
5364;DHT22;2705;41.410;2.160;2024-01-25T03:04:09;13.20;99.90
5364;DHT22;2705;41.410;2.160;2024-01-25T03:06:38;13.40;99.90
5364;DHT22;2705;41.410;2.160;2024-01-25T03:09:07;13.30;99.90
5364;DHT22;2705;41.410;2.160;2024-01-25T03:11:36;13.30;99.90
5364;DHT22;2705;41.410;2.160;2024-01-25T03:14:07;13.20;99.90
5364;DHT22;2705;41.410;2.160;2024-01-25T03:16:36;13.50;99.90
5364;DHT22;2705;41.410;2.160;2024-01-25T03:19:05;13.50;99.90
5364;DHT22;2705;41.410;2.160;2024-01-25T03:21:34;13.50;99.90
5364;DHT22;2705;41.410;2.160;2024-01-25T03:24:04;13.50;99.90
5364;DHT22;2705;41.410;2.160;2024-01-25T03:26:33;13.60;99.90
5364;DHT22;2705;41.410;2.160;2024-01-25T03:29:02;13.70;99.90
5364;DHT22;2705;41.410;2.160;2024-01-25T03:31:32;13.50;99.90
5364;DHT22;2705;41.410;2.160;2024-01-25T03:34:03;13.40;99.90
5364;DHT22;2705;41.410;2.160;2024-01-25T03:36:33;13.40;99.90
5364;DHT22;2705;41.410;2.160;2024-01-25T03:39:03;13.30;99.90
5364;DHT22;2705;41.410;2.160;2024-01-25T03:41:32;13.20;99.90
5364;DHT22;2705;41.410;2.160;2024-01-25T03:44:01;13.30;99.90
5364;DHT22;2705;41.410;2.160;2024-01-25T03:46:32;13.30;99.90
5364;DHT22;2705;41.410;2.160;2024-01-25T03:49:01;13.30;99.90
5364;DHT22;2705;41.410;2.160;2024-01-25T03:51:29;13.30;99.90
5364;DHT22;2705;41.410;2.160;2024-01-25T03:53:58;13.20;99.90
5364;DHT22;2705;41.410;2.160;2024-01-25T03:56:27;13.10;99.90
5364;DHT22;2705;41.410;2.160;2024-01-25T03:58:57;13.10;99.90
5364;DHT22;2705;41.410;2.160;2024-01-25T04:01:26;13.30;99.90
5364;DHT22;2705;41.410;2.160;2024-01-25T04:04:00;13.30;99.90
5364;DHT22;2705;41.410;2.160;2024-01-25T04:06:30;13.20;99.90
5364;DHT22;2705;41.410;2.160;2024-01-25T04:08:59;13.20;99.90
5364;DHT22;2705;41.410;2.160;2024-01-25T04:11:28;13.20;99.90
5364;DHT22;2705;41.410;2.160;2024-01-25T04:13:57;13.10;99.90
5364;DHT22;2705;41.410;2.160;2024-01-25T04:16:27;13.30;99.90
5364;DHT22;2705;41.410;2.160;2024-01-25T04:18:56;13.30;99.90
5364;DHT22;2705;41.410;2.160;2024-01-25T04:21:27;13.20;99.90
5364;DHT22;2705;41.410;2.160;2024-01-25T04:23:56;13.10;99.90
5364;DHT22;2705;41.410;2.160;2024-01-25T04:26:25;13.40;99.90
5364;DHT22;2705;41.410;2.160;2024-01-25T04:28:54;13.30;99.90
5364;DHT22;2705;41.410;2.160;2024-01-25T04:31:23;13.40;99.90
5364;DHT22;2705;41.410;2.160;2024-01-25T04:33:53;13.30;99.90
5364;DHT22;2705;41.410;2.160;2024-01-25T04:36:22;13.20;99.90
5364;DHT22;2705;41.410;2.160;2024-01-25T04:38:53;13.40;99.90
5364;DHT22;2705;41.410;2.160;2024-01-25T04:41:21;13.50;99.90
5364;DHT22;2705;41.410;2.160;2024-01-25T04:43:50;13.60;99.90
5364;DHT22;2705;41.410;2.160;2024-01-25T04:46:19;13.40;99.90
5364;DHT22;2705;41.410;2.160;2024-01-25T04:48:49;13.50;99.90
5364;DHT22;2705;41.410;2.160;2024-01-25T04:51:19;13.40;99.90
5364;DHT22;2705;41.410;2.160;2024-01-25T04:53:48;13.20;99.90
5364;DHT22;2705;41.410;2.160;2024-01-25T04:56:19;13.10;99.90
5364;DHT22;2705;41.410;2.160;2024-01-25T04:58:48;13.10;99.90
5364;DHT22;2705;41.410;2.160;2024-01-25T05:01:18;13.10;99.90
5364;DHT22;2705;41.410;2.160;2024-01-25T05:03:47;13.00;99.90
5364;DHT22;2705;41.410;2.160;2024-01-25T05:06:16;12.90;99.90
5364;DHT22;2705;41.410;2.160;2024-01-25T05:08:45;12.80;99.90
5364;DHT22;2705;41.410;2.160;2024-01-25T05:11:14;12.90;99.90
5364;DHT22;2705;41.410;2.160;2024-01-25T05:13:45;12.70;99.90
5364;DHT22;2705;41.410;2.160;2024-01-25T05:16:14;12.70;99.90
5364;DHT22;2705;41.410;2.160;2024-01-25T05:18:43;12.70;99.90
5364;DHT22;2705;41.410;2.160;2024-01-25T05:21:12;12.50;99.90
5364;DHT22;2705;41.410;2.160;2024-01-25T05:23:41;12.70;99.90
5364;DHT22;2705;41.410;2.160;2024-01-25T05:26:11;12.60;99.90
5364;DHT22;2705;41.410;2.160;2024-01-25T05:28:40;12.60;99.90
5364;DHT22;2705;41.410;2.160;2024-01-25T05:31:10;12.60;99.90
5364;DHT22;2705;41.410;2.160;2024-01-25T05:33:40;12.50;99.90
5364;DHT22;2705;41.410;2.160;2024-01-25T05:36:10;12.40;99.90
5364;DHT22;2705;41.410;2.160;2024-01-25T05:38:39;12.50;99.90
5364;DHT22;2705;41.410;2.160;2024-01-25T05:41:08;12.60;99.90
5364;DHT22;2705;41.410;2.160;2024-01-25T05:43:37;12.60;99.90
5364;DHT22;2705;41.410;2.160;2024-01-25T05:46:07;12.70;99.90
5364;DHT22;2705;41.410;2.160;2024-01-25T05:48:38;12.80;99.90
5364;DHT22;2705;41.410;2.160;2024-01-25T05:51:08;12.70;99.90
5364;DHT22;2705;41.410;2.160;2024-01-25T05:53:37;12.70;99.90
5364;DHT22;2705;41.410;2.160;2024-01-25T05:56:06;12.50;99.90
5364;DHT22;2705;41.410;2.160;2024-01-25T05:58:35;12.60;99.90
5364;DHT22;2705;41.410;2.160;2024-01-25T06:01:06;12.50;99.90
5364;DHT22;2705;41.410;2.160;2024-01-25T06:03:35;12.50;99.90
5364;DHT22;2705;41.410;2.160;2024-01-25T06:06:06;12.40;99.90
5364;DHT22;2705;41.410;2.160;2024-01-25T06:08:37;12.40;99.90
5364;DHT22;2705;41.410;2.160;2024-01-25T06:11:06;12.30;99.90
5364;DHT22;2705;41.410;2.160;2024-01-25T06:13:37;12.30;99.90
5364;DHT22;2705;41.410;2.160;2024-01-25T06:16:07;12.30;99.90
5364;DHT22;2705;41.410;2.160;2024-01-25T06:18:36;12.10;99.90
5364;DHT22;2705;41.410;2.160;2024-01-25T06:21:06;12.30;99.90
5364;DHT22;2705;41.410;2.160;2024-01-25T06:23:35;12.30;99.90
5364;DHT22;2705;41.410;2.160;2024-01-25T06:26:05;12.40;99.90
5364;DHT22;2705;41.410;2.160;2024-01-25T06:28:34;12.30;99.90
5364;DHT22;2705;41.410;2.160;2024-01-25T06:31:03;12.30;99.90
5364;DHT22;2705;41.410;2.160;2024-01-25T06:33:32;12.30;99.90
5364;DHT22;2705;41.410;2.160;2024-01-25T06:36:02;12.30;99.90
5364;DHT22;2705;41.410;2.160;2024-01-25T06:38:32;12.30;99.90
5364;DHT22;2705;41.410;2.160;2024-01-25T06:41:03;12.20;99.90
5364;DHT22;2705;41.410;2.160;2024-01-25T06:43:32;12.30;99.90
5364;DHT22;2705;41.410;2.160;2024-01-25T06:46:02;12.40;99.90
5364;DHT22;2705;41.410;2.160;2024-01-25T06:48:31;12.50;99.90
5364;DHT22;2705;41.410;2.160;2024-01-25T06:51:00;12.60;99.90
5364;DHT22;2705;41.410;2.160;2024-01-25T06:53:29;12.70;99.90
5364;DHT22;2705;41.410;2.160;2024-01-25T06:56:00;12.70;99.90
5364;DHT22;2705;41.410;2.160;2024-01-25T06:58:29;12.60;99.90
5364;DHT22;2705;41.410;2.160;2024-01-25T07:00:59;12.50;99.90
5364;DHT22;2705;41.410;2.160;2024-01-25T07:03:53;12.60;99.90
5364;DHT22;2705;41.410;2.160;2024-01-25T07:06:23;12.70;99.90
5364;DHT22;2705;41.410;2.160;2024-01-25T07:08:52;12.60;99.90
5364;DHT22;2705;41.410;2.160;2024-01-25T07:11:23;12.50;99.90
5364;DHT22;2705;41.410;2.160;2024-01-25T07:13:52;12.60;99.90
5364;DHT22;2705;41.410;2.160;2024-01-25T07:16:21;12.60;99.90
5364;DHT22;2705;41.410;2.160;2024-01-25T07:18:51;12.50;99.90
5364;DHT22;2705;41.410;2.160;2024-01-25T07:21:20;12.60;99.90
5364;DHT22;2705;41.410;2.160;2024-01-25T07:23:49;12.80;99.90
5364;DHT22;2705;41.410;2.160;2024-01-25T07:26:19;12.80;99.90
5364;DHT22;2705;41.410;2.160;2024-01-25T07:28:51;12.90;99.90
5364;DHT22;2705;41.410;2.160;2024-01-25T07:31:26;12.60;99.90
5364;DHT22;2705;41.410;2.160;2024-01-25T07:33:55;12.90;99.90
5364;DHT22;2705;41.410;2.160;2024-01-25T07:36:25;12.90;99.90
5364;DHT22;2705;41.410;2.160;2024-01-25T07:38:54;13.00;99.90
5364;DHT22;2705;41.410;2.160;2024-01-25T07:41:24;13.00;99.90
5364;DHT22;2705;41.410;2.160;2024-01-25T07:43:55;13.10;99.90
5364;DHT22;2705;41.410;2.160;2024-01-25T07:46:24;13.00;99.90
5364;DHT22;2705;41.410;2.160;2024-01-25T07:48:53;12.80;99.90
5364;DHT22;2705;41.410;2.160;2024-01-25T07:51:22;12.70;99.90
5364;DHT22;2705;41.410;2.160;2024-01-25T07:53:56;12.70;99.90
5364;DHT22;2705;41.410;2.160;2024-01-25T07:56:25;12.80;99.90
5364;DHT22;2705;41.410;2.160;2024-01-25T07:58:56;12.90;99.90
5364;DHT22;2705;41.410;2.160;2024-01-25T08:01:27;13.10;99.90
5364;DHT22;2705;41.410;2.160;2024-01-25T08:03:56;13.10;99.90
5364;DHT22;2705;41.410;2.160;2024-01-25T08:06:27;13.10;99.90
5364;DHT22;2705;41.410;2.160;2024-01-25T08:08:57;13.20;99.90
5364;DHT22;2705;41.410;2.160;2024-01-25T08:11:26;13.20;99.90
5364;DHT22;2705;41.410;2.160;2024-01-25T08:13:56;13.10;99.90
5364;DHT22;2705;41.410;2.160;2024-01-25T08:16:26;13.10;99.90
5364;DHT22;2705;41.410;2.160;2024-01-25T08:18:55;13.30;99.90
5364;DHT22;2705;41.410;2.160;2024-01-25T08:21:26;13.30;99.90
5364;DHT22;2705;41.410;2.160;2024-01-25T08:23:56;13.40;99.90
5364;DHT22;2705;41.410;2.160;2024-01-25T08:26:25;13.40;99.90
5364;DHT22;2705;41.410;2.160;2024-01-25T08:28:55;13.30;99.90
5364;DHT22;2705;41.410;2.160;2024-01-25T08:31:25;13.40;99.90
5364;DHT22;2705;41.410;2.160;2024-01-25T08:33:54;13.40;99.90
5364;DHT22;2705;41.410;2.160;2024-01-25T08:36:23;13.40;99.90
5364;DHT22;2705;41.410;2.160;2024-01-25T08:38:52;13.50;99.90
5364;DHT22;2705;41.410;2.160;2024-01-25T08:41:21;13.50;99.90
5364;DHT22;2705;41.410;2.160;2024-01-25T08:43:51;13.60;99.90
5364;DHT22;2705;41.410;2.160;2024-01-25T08:46:22;13.70;99.90
5364;DHT22;2705;41.410;2.160;2024-01-25T08:48:52;13.70;99.90
5364;DHT22;2705;41.410;2.160;2024-01-25T08:51:21;13.80;99.90
5364;DHT22;2705;41.410;2.160;2024-01-25T08:53:50;14.00;99.90
5364;DHT22;2705;41.410;2.160;2024-01-25T08:56:19;14.00;99.90
5364;DHT22;2705;41.410;2.160;2024-01-25T08:58:48;14.00;99.90
5364;DHT22;2705;41.410;2.160;2024-01-25T09:01:18;14.10;99.90
5364;DHT22;2705;41.410;2.160;2024-01-25T09:03:48;14.20;99.90
5364;DHT22;2705;41.410;2.160;2024-01-25T09:06:19;14.30;99.90
5364;DHT22;2705;41.410;2.160;2024-01-25T09:08:49;14.40;99.90
5364;DHT22;2705;41.410;2.160;2024-01-25T09:11:19;14.30;99.90
5364;DHT22;2705;41.410;2.160;2024-01-25T09:13:48;14.20;99.90
5364;DHT22;2705;41.410;2.160;2024-01-25T09:16:17;14.30;99.90
5364;DHT22;2705;41.410;2.160;2024-01-25T09:18:49;14.10;99.90
5364;DHT22;2705;41.410;2.160;2024-01-25T09:21:18;14.10;99.90
5364;DHT22;2705;41.410;2.160;2024-01-25T09:23:47;14.10;99.90
5364;DHT22;2705;41.410;2.160;2024-01-25T09:26:16;14.00;99.90
5364;DHT22;2705;41.410;2.160;2024-01-25T09:28:45;14.00;99.90
5364;DHT22;2705;41.410;2.160;2024-01-25T09:31:13;13.90;99.90
5364;DHT22;2705;41.410;2.160;2024-01-25T09:33:42;14.10;99.90
5364;DHT22;2705;41.410;2.160;2024-01-25T09:36:13;14.10;99.90
5364;DHT22;2705;41.410;2.160;2024-01-25T09:38:42;14.10;99.90
5364;DHT22;2705;41.410;2.160;2024-01-25T09:41:11;14.30;99.90
5364;DHT22;2705;41.410;2.160;2024-01-25T09:43:40;14.40;99.90
5364;DHT22;2705;41.410;2.160;2024-01-25T09:46:11;14.60;99.90
5364;DHT22;2705;41.410;2.160;2024-01-25T09:48:41;14.60;99.90
5364;DHT22;2705;41.410;2.160;2024-01-25T09:51:15;14.70;99.90
5364;DHT22;2705;41.410;2.160;2024-01-25T09:53:44;14.80;99.90
5364;DHT22;2705;41.410;2.160;2024-01-25T09:56:14;15.00;99.90
5364;DHT22;2705;41.410;2.160;2024-01-25T09:58:46;15.00;99.90
5364;DHT22;2705;41.410;2.160;2024-01-25T10:01:15;15.10;99.90
5364;DHT22;2705;41.410;2.160;2024-01-25T10:03:45;15.10;99.90
5364;DHT22;2705;41.410;2.160;2024-01-25T10:06:16;15.30;99.90
5364;DHT22;2705;41.410;2.160;2024-01-25T10:08:45;15.40;99.90
5364;DHT22;2705;41.410;2.160;2024-01-25T10:11:14;15.50;99.90
5364;DHT22;2705;41.410;2.160;2024-01-25T10:13:43;15.60;99.90
5364;DHT22;2705;41.410;2.160;2024-01-25T10:16:12;15.70;99.90
5364;DHT22;2705;41.410;2.160;2024-01-25T10:18:42;16.00;99.90
5364;DHT22;2705;41.410;2.160;2024-01-25T10:21:12;15.90;99.90
5364;DHT22;2705;41.410;2.160;2024-01-25T10:23:45;15.90;99.90
5364;DHT22;2705;41.410;2.160;2024-01-25T10:26:15;16.00;99.90
5364;DHT22;2705;41.410;2.160;2024-01-25T10:28:50;16.00;99.90
5364;DHT22;2705;41.410;2.160;2024-01-25T10:31:23;16.10;99.90
5364;DHT22;2705;41.410;2.160;2024-01-25T10:33:53;16.20;99.90
5364;DHT22;2705;41.410;2.160;2024-01-25T10:36:23;16.10;99.90
5364;DHT22;2705;41.410;2.160;2024-01-25T10:38:53;16.20;99.90
5364;DHT22;2705;41.410;2.160;2024-01-25T10:41:23;16.30;99.90
5364;DHT22;2705;41.410;2.160;2024-01-25T10:43:55;16.40;99.90
5364;DHT22;2705;41.410;2.160;2024-01-25T10:46:24;16.50;99.90
5364;DHT22;2705;41.410;2.160;2024-01-25T10:48:55;16.50;99.90
5364;DHT22;2705;41.410;2.160;2024-01-25T10:51:26;16.50;99.90
5364;DHT22;2705;41.410;2.160;2024-01-25T10:53:57;16.60;99.90
5364;DHT22;2705;41.410;2.160;2024-01-25T10:56:26;16.60;99.90
5364;DHT22;2705;41.410;2.160;2024-01-25T10:58:55;16.70;99.90
5364;DHT22;2705;41.410;2.160;2024-01-25T11:01:24;16.80;99.90
5364;DHT22;2705;41.410;2.160;2024-01-25T11:03:53;16.90;99.90
5364;DHT22;2705;41.410;2.160;2024-01-25T11:06:22;16.80;99.90
5364;DHT22;2705;41.410;2.160;2024-01-25T11:08:51;16.80;99.90
5364;DHT22;2705;41.410;2.160;2024-01-25T11:11:21;16.80;99.90
5364;DHT22;2705;41.410;2.160;2024-01-25T11:13:52;16.90;99.90
5364;DHT22;2705;41.410;2.160;2024-01-25T11:16:27;17.00;99.90
5364;DHT22;2705;41.410;2.160;2024-01-25T11:18:57;16.90;99.90
5364;DHT22;2705;41.410;2.160;2024-01-25T11:21:42;16.80;99.90
5364;DHT22;2705;41.410;2.160;2024-01-25T11:24:12;16.80;99.90
5364;DHT22;2705;41.410;2.160;2024-01-25T11:26:43;16.90;99.90
5364;DHT22;2705;41.410;2.160;2024-01-25T11:29:13;17.00;99.90
5364;DHT22;2705;41.410;2.160;2024-01-25T11:31:44;17.00;99.90
5364;DHT22;2705;41.410;2.160;2024-01-25T11:34:13;16.80;99.90
5364;DHT22;2705;41.410;2.160;2024-01-25T11:36:43;16.80;99.90
5364;DHT22;2705;41.410;2.160;2024-01-25T11:39:13;16.80;99.90
5364;DHT22;2705;41.410;2.160;2024-01-25T11:41:44;16.90;99.90
5364;DHT22;2705;41.410;2.160;2024-01-25T11:44:14;16.80;99.90
5364;DHT22;2705;41.410;2.160;2024-01-25T11:46:43;16.80;99.90
5364;DHT22;2705;41.410;2.160;2024-01-25T11:49:12;16.90;99.90
5364;DHT22;2705;41.410;2.160;2024-01-25T11:51:41;16.90;99.90
5364;DHT22;2705;41.410;2.160;2024-01-25T11:54:10;16.80;99.90
5364;DHT22;2705;41.410;2.160;2024-01-25T11:56:39;16.80;99.90
5364;DHT22;2705;41.410;2.160;2024-01-25T11:59:11;16.80;99.90
5364;DHT22;2705;41.410;2.160;2024-01-25T12:01:39;16.80;99.90
5364;DHT22;2705;41.410;2.160;2024-01-25T12:04:09;17.00;99.90
5364;DHT22;2705;41.410;2.160;2024-01-25T12:06:38;16.90;99.90
5364;DHT22;2705;41.410;2.160;2024-01-25T12:09:08;17.00;99.90
5364;DHT22;2705;41.410;2.160;2024-01-25T12:11:37;17.00;99.90
5364;DHT22;2705;41.410;2.160;2024-01-25T12:14:05;17.10;99.90
5364;DHT22;2705;41.410;2.160;2024-01-25T12:16:37;17.10;99.90
5364;DHT22;2705;41.410;2.160;2024-01-25T12:19:06;17.10;99.90
5364;DHT22;2705;41.410;2.160;2024-01-25T12:21:36;17.10;99.90
5364;DHT22;2705;41.410;2.160;2024-01-25T12:24:05;17.20;99.90
5364;DHT22;2705;41.410;2.160;2024-01-25T12:26:36;17.40;99.90
5364;DHT22;2705;41.410;2.160;2024-01-25T12:29:07;17.40;99.90
5364;DHT22;2705;41.410;2.160;2024-01-25T12:31:39;17.40;99.90
5364;DHT22;2705;41.410;2.160;2024-01-25T12:34:12;17.50;99.90
5364;DHT22;2705;41.410;2.160;2024-01-25T12:36:42;17.50;99.90
5364;DHT22;2705;41.410;2.160;2024-01-25T12:39:11;17.60;99.90
5364;DHT22;2705;41.410;2.160;2024-01-25T12:41:46;17.70;99.90
5364;DHT22;2705;41.410;2.160;2024-01-25T12:44:15;17.80;99.90
5364;DHT22;2705;41.410;2.160;2024-01-25T12:46:46;17.70;99.90
5364;DHT22;2705;41.410;2.160;2024-01-25T12:49:15;17.60;99.90
5364;DHT22;2705;41.410;2.160;2024-01-25T12:51:44;17.60;99.90
5364;DHT22;2705;41.410;2.160;2024-01-25T12:54:15;17.50;99.90
5364;DHT22;2705;41.410;2.160;2024-01-25T12:56:44;17.60;99.90
5364;DHT22;2705;41.410;2.160;2024-01-25T12:59:14;17.70;99.90
5364;DHT22;2705;41.410;2.160;2024-01-25T13:01:43;17.70;99.90
5364;DHT22;2705;41.410;2.160;2024-01-25T13:04:13;17.80;99.90
5364;DHT22;2705;41.410;2.160;2024-01-25T13:06:42;17.80;99.90
5364;DHT22;2705;41.410;2.160;2024-01-25T13:09:11;17.90;99.90
5364;DHT22;2705;41.410;2.160;2024-01-25T13:11:40;18.00;99.90
5364;DHT22;2705;41.410;2.160;2024-01-25T13:14:09;17.90;99.90
5364;DHT22;2705;41.410;2.160;2024-01-25T13:16:38;18.00;99.90
5364;DHT22;2705;41.410;2.160;2024-01-25T13:19:06;18.10;99.90
5364;DHT22;2705;41.410;2.160;2024-01-25T13:21:37;18.10;99.90
5364;DHT22;2705;41.410;2.160;2024-01-25T13:24:06;18.10;99.90
5364;DHT22;2705;41.410;2.160;2024-01-25T13:26:35;18.20;99.90
5364;DHT22;2705;41.410;2.160;2024-01-25T13:29:04;18.20;99.90
5364;DHT22;2705;41.410;2.160;2024-01-25T13:31:33;18.20;99.90
5364;DHT22;2705;41.410;2.160;2024-01-25T13:34:02;18.30;99.90
5364;DHT22;2705;41.410;2.160;2024-01-25T13:36:31;18.30;99.90
5364;DHT22;2705;41.410;2.160;2024-01-25T13:39:02;18.20;99.90
5364;DHT22;2705;41.410;2.160;2024-01-25T13:41:30;18.20;99.90
5364;DHT22;2705;41.410;2.160;2024-01-25T13:43:59;18.20;99.90
5364;DHT22;2705;41.410;2.160;2024-01-25T13:46:28;18.30;99.90
5364;DHT22;2705;41.410;2.160;2024-01-25T13:48:57;18.30;99.90
5364;DHT22;2705;41.410;2.160;2024-01-25T13:51:26;18.30;99.90
5364;DHT22;2705;41.410;2.160;2024-01-25T13:53:54;18.40;99.90
5364;DHT22;2705;41.410;2.160;2024-01-25T13:56:25;18.50;99.90
5364;DHT22;2705;41.410;2.160;2024-01-25T13:58:53;18.50;99.90
5364;DHT22;2705;41.410;2.160;2024-01-25T14:01:22;18.50;99.90
5364;DHT22;2705;41.410;2.160;2024-01-25T14:03:51;18.50;99.90
5364;DHT22;2705;41.410;2.160;2024-01-25T14:06:20;18.60;99.90
5364;DHT22;2705;41.410;2.160;2024-01-25T14:08:49;18.60;99.90
5364;DHT22;2705;41.410;2.160;2024-01-25T14:11:18;18.60;99.90
5364;DHT22;2705;41.410;2.160;2024-01-25T14:13:49;18.60;99.90
5364;DHT22;2705;41.410;2.160;2024-01-25T14:16:18;18.60;99.90
5364;DHT22;2705;41.410;2.160;2024-01-25T14:18:50;18.70;99.90
5364;DHT22;2705;41.410;2.160;2024-01-25T14:21:19;18.70;99.90
5364;DHT22;2705;41.410;2.160;2024-01-25T14:23:49;18.60;99.90
5364;DHT22;2705;41.410;2.160;2024-01-25T14:26:18;18.60;99.90
5364;DHT22;2705;41.410;2.160;2024-01-25T14:28:47;18.70;99.90
5364;DHT22;2705;41.410;2.160;2024-01-25T14:31:17;18.70;99.90
5364;DHT22;2705;41.410;2.160;2024-01-25T14:33:46;18.60;99.90
5364;DHT22;2705;41.410;2.160;2024-01-25T14:36:15;18.60;99.90
5364;DHT22;2705;41.410;2.160;2024-01-25T14:38:44;18.70;99.90
5364;DHT22;2705;41.410;2.160;2024-01-25T14:41:13;18.80;99.90
5364;DHT22;2705;41.410;2.160;2024-01-25T14:43:42;18.80;99.90
5364;DHT22;2705;41.410;2.160;2024-01-25T14:46:11;18.80;99.90
5364;DHT22;2705;41.410;2.160;2024-01-25T14:48:43;18.70;99.90
5364;DHT22;2705;41.410;2.160;2024-01-25T14:51:12;18.70;99.90
5364;DHT22;2705;41.410;2.160;2024-01-25T14:53:41;18.70;99.90
5364;DHT22;2705;41.410;2.160;2024-01-25T14:56:10;18.70;99.90
5364;DHT22;2705;41.410;2.160;2024-01-25T14:58:39;18.70;99.90
5364;DHT22;2705;41.410;2.160;2024-01-25T15:01:12;18.60;99.90
5364;DHT22;2705;41.410;2.160;2024-01-25T15:03:42;18.50;99.90
5364;DHT22;2705;41.410;2.160;2024-01-25T15:06:11;18.50;99.90
5364;DHT22;2705;41.410;2.160;2024-01-25T15:08:40;18.40;99.90
5364;DHT22;2705;41.410;2.160;2024-01-25T15:11:09;18.50;99.90
5364;DHT22;2705;41.410;2.160;2024-01-25T15:13:38;18.50;99.90
5364;DHT22;2705;41.410;2.160;2024-01-25T15:16:07;18.50;99.90
5364;DHT22;2705;41.410;2.160;2024-01-25T15:18:36;18.50;99.90
5364;DHT22;2705;41.410;2.160;2024-01-25T15:21:07;18.50;99.90
5364;DHT22;2705;41.410;2.160;2024-01-25T15:23:36;18.50;99.90
5364;DHT22;2705;41.410;2.160;2024-01-25T15:26:05;18.50;99.90
5364;DHT22;2705;41.410;2.160;2024-01-25T15:28:34;18.50;99.90
5364;DHT22;2705;41.410;2.160;2024-01-25T15:31:03;18.40;99.90
5364;DHT22;2705;41.410;2.160;2024-01-25T15:33:32;18.40;99.90
5364;DHT22;2705;41.410;2.160;2024-01-25T15:36:01;18.40;99.90
5364;DHT22;2705;41.410;2.160;2024-01-25T15:38:31;18.40;99.90
5364;DHT22;2705;41.410;2.160;2024-01-25T15:41:00;18.40;99.90
5364;DHT22;2705;41.410;2.160;2024-01-25T15:43:29;18.40;99.90
5364;DHT22;2705;41.410;2.160;2024-01-25T15:45:58;18.40;99.90
5364;DHT22;2705;41.410;2.160;2024-01-25T15:48:27;18.50;99.90
5364;DHT22;2705;41.410;2.160;2024-01-25T15:50:56;18.80;99.90
5364;DHT22;2705;41.410;2.160;2024-01-25T15:53:24;18.90;99.90
5364;DHT22;2705;41.410;2.160;2024-01-25T15:55:55;18.80;99.90
5364;DHT22;2705;41.410;2.160;2024-01-25T15:58:25;18.60;99.90
5364;DHT22;2705;41.410;2.160;2024-01-25T16:00:54;18.30;99.90
5364;DHT22;2705;41.410;2.160;2024-01-25T16:03:23;18.20;99.90
5364;DHT22;2705;41.410;2.160;2024-01-25T16:05:52;18.10;99.90
5364;DHT22;2705;41.410;2.160;2024-01-25T16:08:21;18.10;99.90
5364;DHT22;2705;41.410;2.160;2024-01-25T16:10:50;18.00;99.90
5364;DHT22;2705;41.410;2.160;2024-01-25T16:13:20;17.90;99.90
5364;DHT22;2705;41.410;2.160;2024-01-25T16:15:50;17.90;99.90
5364;DHT22;2705;41.410;2.160;2024-01-25T16:18:19;17.80;99.90